createdAt,value
2023-04-09T00:03:26.846Z,45.40
2023-04-09T00:06:54.040Z,41.10
2023-04-09T00:10:21.403Z,41.00
2023-04-09T00:13:48.292Z,38.00
2023-04-09T00:17:15.107Z,40.70
2023-04-09T00:20:42.083Z,38.10
2023-04-09T00:24:09.321Z,45.90
2023-04-09T00:27:36.314Z,40.40
2023-04-09T00:31:03.729Z,43.10
2023-04-09T00:34:30.567Z,45.10
2023-04-09T00:37:57.598Z,39.70
2023-04-09T00:41:24.560Z,44.50
2023-04-09T00:44:51.349Z,45.10
2023-04-09T00:48:18.793Z,46.20
2023-04-09T00:51:47.706Z,41.10
2023-04-09T00:55:15.537Z,38.80
2023-04-09T00:58:43.160Z,38.20
2023-04-09T01:02:10.147Z,44.20
2023-04-09T01:05:45.217Z,42.60
2023-04-09T01:09:19.478Z,45.30
2023-04-09T01:12:59.322Z,42.30
2023-04-09T01:16:27.231Z,45.50
2023-04-09T01:20:03.308Z,45.20
2023-04-09T01:23:43.517Z,44.60
2023-04-09T01:27:11.366Z,42.90
2023-04-09T01:30:50.506Z,40.80
2023-04-09T01:34:18.059Z,41.60
2023-04-09T01:37:45.424Z,41.20
2023-04-09T01:41:16.047Z,43.60
2023-04-09T01:44:43.766Z,41.00
2023-04-09T01:48:11.373Z,40.90
2023-04-09T01:51:39.460Z,41.20
2023-04-09T01:55:07.333Z,43.30
2023-04-09T01:58:35.333Z,43.70
2023-04-09T02:02:07.932Z,45.20
2023-04-09T02:05:42.626Z,45.30
2023-04-09T02:09:12.703Z,43.60
2023-04-09T02:12:43.918Z,52.20
2023-04-09T02:16:12.681Z,51.70
2023-04-09T02:19:44.832Z,41.00
2023-04-09T02:23:13.635Z,41.00
2023-04-09T02:26:40.628Z,38.70
2023-04-09T02:30:09.690Z,43.40
2023-04-09T02:33:36.461Z,60.40
2023-04-09T02:37:03.650Z,60.30
2023-04-09T02:40:31.167Z,56.40
2023-04-09T02:43:58.276Z,57.90
2023-04-09T02:47:27.202Z,54.90
2023-04-09T02:50:54.120Z,46.20
2023-04-09T02:54:21.505Z,45.10
2023-04-09T02:57:48.649Z,43.30
2023-04-09T03:01:15.592Z,42.60
2023-04-09T03:04:42.598Z,40.30
2023-04-09T03:08:09.666Z,42.00
2023-04-09T03:11:36.989Z,44.30
2023-04-09T03:15:04.593Z,46.80
2023-04-09T03:18:31.526Z,52.70
2023-04-09T03:21:58.483Z,48.80
2023-04-09T03:25:26.647Z,56.90
2023-04-09T03:28:54.642Z,52.70
2023-04-09T03:32:22.127Z,50.60
2023-04-09T03:35:49.373Z,48.40
2023-04-09T03:39:17.854Z,46.20
2023-04-09T03:42:46.671Z,43.80
2023-04-09T03:46:18.862Z,41.90
2023-04-09T03:49:47.231Z,38.80
2023-04-09T03:53:24.069Z,37.00
2023-04-09T03:56:52.542Z,42.70
2023-04-09T04:04:16.516Z,36.90
2023-04-09T04:08:03.925Z,39.10
2023-04-09T04:11:30.939Z,43.10
2023-04-09T04:14:58.077Z,42.60
2023-04-09T04:18:31.730Z,43.90
2023-04-09T04:21:58.716Z,41.30
2023-04-09T04:25:26.887Z,41.80
2023-04-09T04:28:55.096Z,43.90
2023-04-09T04:33:01.104Z,44.40
2023-04-09T04:39:55.869Z,42.90
2023-04-09T04:43:23.378Z,38.90
2023-04-09T04:46:52.487Z,43.50
2023-04-09T04:50:19.618Z,46.40
2023-04-09T04:53:57.194Z,47.70
2023-04-09T04:57:24.863Z,48.90
2023-04-09T05:00:52.591Z,41.40
2023-04-09T05:04:19.600Z,42.20
2023-04-09T05:07:47.273Z,51.10
2023-04-09T05:11:16.936Z,45.50
2023-04-09T05:14:45.718Z,42.60
2023-04-09T05:18:12.851Z,42.80
2023-04-09T05:21:40.419Z,43.50
2023-04-09T05:25:10.536Z,47.20
2023-04-09T05:28:39.077Z,47.00
2023-04-09T05:32:13.392Z,50.50
2023-04-09T05:35:42.667Z,47.60
2023-04-09T05:39:10.126Z,40.90
2023-04-09T05:42:37.981Z,44.80
2023-04-09T05:46:12.151Z,43.90
2023-04-09T05:49:39.076Z,35.90
2023-04-09T05:53:10.241Z,40.80
2023-04-09T05:56:41.821Z,38.60
2023-04-09T06:00:10.865Z,33.30
2023-04-09T06:03:44.382Z,36.80
2023-04-09T06:07:11.495Z,42.60
2023-04-09T06:10:39.545Z,36.30
2023-04-09T06:14:08.509Z,38.50
2023-04-09T06:17:35.624Z,41.60
2023-04-09T06:21:06.981Z,37.30
2023-04-09T06:24:35.973Z,39.90
2023-04-09T06:28:05.589Z,43.00
2023-04-09T06:31:33.570Z,43.30
2023-04-09T06:35:01.787Z,41.60
2023-04-09T06:38:29.559Z,42.00
2023-04-09T06:41:56.598Z,39.50
2023-04-09T06:45:32.878Z,37.40
2023-04-09T06:49:00.063Z,33.10
2023-04-09T06:52:27.010Z,40.10
2023-04-09T06:55:55.501Z,42.60
2023-04-09T06:59:23.634Z,33.30
2023-04-09T07:02:50.726Z,32.90
2023-04-09T07:06:17.809Z,34.60
2023-04-09T07:09:45.594Z,34.20
2023-04-09T07:13:12.675Z,31.50
2023-04-09T07:16:39.765Z,29.70
2023-04-09T07:20:08.371Z,32.00
2023-04-09T07:23:38.217Z,34.20
2023-04-09T07:27:07.693Z,33.30
2023-04-09T07:30:34.991Z,32.50
2023-04-09T07:34:03.129Z,31.80
2023-04-09T07:37:30.558Z,30.40
2023-04-09T07:40:58.552Z,31.80
2023-04-09T07:44:26.348Z,33.60
2023-04-09T07:47:53.809Z,34.00
2023-04-09T07:51:22.903Z,32.30
2023-04-09T07:54:52.389Z,33.30
2023-04-09T07:58:20.583Z,32.90
2023-04-09T08:01:47.748Z,27.70
2023-04-09T08:05:15.757Z,32.00
2023-04-09T08:08:45.716Z,35.20
2023-04-09T08:12:13.277Z,30.70
2023-04-09T08:15:41.608Z,29.70
2023-04-09T08:19:09.358Z,28.70
2023-04-09T08:22:37.444Z,29.80
2023-04-09T08:26:04.674Z,29.40
2023-04-09T08:29:32.532Z,31.70
2023-04-09T08:32:59.691Z,31.20
2023-04-09T08:36:27.819Z,28.70
2023-04-09T08:39:56.089Z,27.40
2023-04-09T08:43:41.962Z,28.40
2023-04-09T08:47:14.371Z,26.70
2023-04-09T08:50:42.198Z,22.60
2023-04-09T08:54:10.400Z,24.70
2023-04-09T08:57:42.863Z,24.10
2023-04-09T09:01:22.086Z,22.40
2023-04-09T09:04:51.139Z,24.60
2023-04-09T09:08:27.255Z,25.50
2023-04-09T09:11:55.037Z,25.90
2023-04-09T09:15:32.288Z,22.70
2023-04-09T09:19:01.162Z,24.00
2023-04-09T09:22:28.261Z,24.50
2023-04-09T09:25:56.426Z,23.30
2023-04-09T09:29:24.826Z,22.00
2023-04-09T09:32:55.237Z,18.90
2023-04-09T09:36:36.845Z,18.30
2023-04-09T09:40:05.289Z,20.70
2023-04-09T09:43:43.357Z,19.90
2023-04-09T09:47:13.397Z,19.50
2023-04-09T09:50:42.139Z,23.40
2023-04-09T09:54:13.069Z,19.10
2023-04-09T09:57:43.621Z,19.90
2023-04-09T10:01:14.650Z,16.70
2023-04-09T10:04:41.954Z,17.90
2023-04-09T10:08:10.260Z,18.90
2023-04-09T10:11:42.566Z,19.40
2023-04-09T10:15:12.157Z,16.10
2023-04-09T10:18:40.757Z,18.30
2023-04-09T10:22:11.461Z,21.40
2023-04-09T10:25:38.494Z,18.30
2023-04-09T10:29:10.061Z,18.90
2023-04-09T10:32:40.034Z,20.10
2023-04-09T10:36:13.360Z,18.30
2023-04-09T10:39:46.236Z,20.00
2023-04-09T10:43:14.478Z,19.80
2023-04-09T10:46:43.275Z,19.30
2023-04-09T10:50:26.699Z,19.10
2023-04-09T10:53:55.172Z,19.00
2023-04-09T10:57:26.376Z,20.50
2023-04-09T11:00:55.349Z,20.40
2023-04-09T11:04:24.546Z,19.10
2023-04-09T11:07:56.271Z,20.00
2023-04-09T11:11:29.407Z,19.10
2023-04-09T11:14:56.269Z,16.60
2023-04-09T11:18:28.555Z,18.10
2023-04-09T11:21:56.196Z,17.70
2023-04-09T11:25:26.530Z,18.40
2023-04-09T11:28:59.180Z,26.10
2023-04-09T11:32:32.054Z,26.10
2023-04-09T11:35:59.053Z,22.80
2023-04-09T11:39:26.309Z,20.70
2023-04-09T11:42:55.580Z,19.30
2023-04-09T11:46:26.155Z,17.20
2023-04-09T11:49:54.058Z,20.20
2023-04-09T11:53:24.523Z,24.80
2023-04-09T11:56:56.050Z,17.90
2023-04-09T12:00:24.959Z,18.80
2023-04-09T12:03:57.232Z,17.30
2023-04-09T12:07:25.409Z,17.40
2023-04-09T12:10:54.099Z,17.90
2023-04-09T12:14:22.897Z,18.50
2023-04-09T12:17:52.193Z,17.60
2023-04-09T12:21:19.465Z,19.60
2023-04-09T12:24:46.594Z,17.90
2023-04-09T12:28:15.845Z,15.40
2023-04-09T12:31:42.713Z,18.90
2023-04-09T12:35:10.650Z,16.00
2023-04-09T12:38:38.320Z,23.10
2023-04-09T12:42:05.215Z,19.40
2023-04-09T12:45:32.692Z,17.60
2023-04-09T12:48:59.517Z,17.70
2023-04-09T12:52:26.718Z,17.90
2023-04-09T12:55:53.913Z,16.20
2023-04-09T12:59:20.933Z,22.10
2023-04-09T13:02:48.176Z,16.10
2023-04-09T13:06:15.271Z,19.30
2023-04-09T13:09:42.224Z,17.80
2023-04-09T13:13:12.275Z,18.10
2023-04-09T13:16:39.372Z,15.40
2023-04-09T13:20:07.862Z,15.80
2023-04-09T13:23:34.806Z,21.00
2023-04-09T13:27:02.158Z,15.80
2023-04-09T13:30:29.418Z,18.60
2023-04-09T13:33:56.688Z,18.00
2023-04-09T13:37:23.619Z,17.50
2023-04-09T13:40:50.348Z,17.50
2023-04-09T13:44:17.286Z,16.90
2023-04-09T13:47:44.500Z,16.70
2023-04-09T13:51:12.177Z,16.90
2023-04-09T13:54:39.555Z,16.00
2023-04-09T13:58:06.618Z,17.90
2023-04-09T14:01:35.938Z,22.10
2023-04-09T14:05:03.989Z,18.60
2023-04-09T14:08:32.234Z,25.50
2023-04-09T14:11:59.068Z,59.30
2023-04-09T14:15:26.450Z,16.70
2023-04-09T14:18:53.474Z,17.20
2023-04-09T14:22:20.526Z,51.10
2023-04-09T14:25:47.424Z,13.80
2023-04-09T14:29:14.295Z,15.70
2023-04-09T14:32:41.323Z,14.80
2023-04-09T14:36:09.403Z,15.50
2023-04-09T14:39:36.474Z,15.20
2023-04-09T14:43:03.514Z,15.10
2023-04-09T14:46:30.433Z,15.40
2023-04-09T14:49:57.534Z,14.70
2023-04-09T14:53:24.741Z,14.30
2023-04-09T14:56:52.111Z,13.30
2023-04-09T15:00:19.804Z,20.70
2023-04-09T15:03:47.708Z,17.80
2023-04-09T15:07:14.548Z,17.80
2023-04-09T15:10:41.932Z,15.30
2023-04-09T15:14:08.914Z,20.10
2023-04-09T15:17:35.900Z,15.30
2023-04-09T15:21:03.234Z,25.90
2023-04-09T15:24:30.089Z,19.30
2023-04-09T15:27:57.160Z,19.20
2023-04-09T15:31:24.272Z,20.90
2023-04-09T15:34:51.280Z,15.20
2023-04-09T15:38:21.200Z,15.60
2023-04-09T15:41:48.106Z,18.30
2023-04-09T15:45:16.792Z,16.90
2023-04-09T15:48:43.905Z,17.00
2023-04-09T15:52:11.216Z,16.50
2023-04-09T15:55:38.216Z,16.20
2023-04-09T15:59:05.438Z,17.30
2023-04-09T16:02:32.446Z,16.30
2023-04-09T16:06:01.825Z,16.30
2023-04-09T16:09:29.312Z,17.00
2023-04-09T16:12:56.599Z,16.00
2023-04-09T16:16:23.824Z,18.80
2023-04-09T16:19:51.048Z,18.40
2023-04-09T16:23:18.244Z,18.30
2023-04-09T16:26:46.517Z,15.90
2023-04-09T16:30:14.619Z,21.50
2023-04-09T16:33:43.264Z,22.30
2023-04-09T16:37:11.926Z,15.50
2023-04-09T16:40:39.856Z,15.60
2023-04-09T16:44:10.411Z,13.60
2023-04-09T16:47:40.592Z,15.30
2023-04-09T16:51:11.080Z,17.40
2023-04-09T16:54:38.928Z,19.60
2023-04-09T16:58:09.511Z,20.00
2023-04-09T17:01:38.720Z,21.90
2023-04-09T17:05:09.071Z,20.20
2023-04-09T17:08:37.147Z,22.30
2023-04-09T17:12:05.731Z,25.60
2023-04-09T17:15:33.477Z,25.70
2023-04-09T17:19:04.670Z,23.90
2023-04-09T17:22:38.277Z,20.70
2023-04-09T17:26:06.663Z,22.50
2023-04-09T17:29:35.728Z,26.00
2023-04-09T17:33:05.076Z,31.00
2023-04-09T17:36:35.613Z,36.00
2023-04-09T17:40:04.299Z,28.10
2023-04-09T17:43:32.095Z,23.90
2023-04-09T17:47:00.511Z,27.60
2023-04-09T17:50:29.117Z,38.50
2023-04-09T17:53:57.420Z,40.10
2023-04-09T17:57:27.858Z,37.10
2023-04-09T18:00:57.132Z,28.50
2023-04-09T18:04:29.087Z,31.30
2023-04-09T18:07:59.910Z,35.60
2023-04-09T18:11:28.163Z,42.50
2023-04-09T18:14:55.371Z,44.60
2023-04-09T18:18:25.711Z,38.80
2023-04-09T18:21:55.534Z,37.10
2023-04-09T18:25:23.580Z,34.30
2023-04-09T18:28:51.644Z,29.70
2023-04-09T18:32:20.364Z,29.80
2023-04-09T18:35:49.536Z,32.60
2023-04-09T18:39:20.199Z,34.60
2023-04-09T18:42:53.007Z,38.10
2023-04-09T18:46:22.928Z,43.70
2023-04-09T18:49:52.146Z,47.10
2023-04-09T18:53:20.248Z,46.00
2023-04-09T18:56:49.381Z,50.50
2023-04-09T19:00:18.594Z,85.20
2023-04-09T19:03:46.336Z,99.90
2023-04-09T19:07:17.779Z,64.70
2023-04-09T19:10:47.825Z,45.10
2023-04-09T19:14:16.122Z,37.10
2023-04-09T19:17:45.163Z,36.20
2023-04-09T19:21:13.799Z,35.90
2023-04-09T19:24:44.308Z,34.00
2023-04-09T19:28:12.670Z,35.40
2023-04-09T19:31:41.650Z,37.60
2023-04-09T19:35:12.679Z,38.30
2023-04-09T19:38:40.728Z,38.90
2023-04-09T19:42:10.299Z,35.40
2023-04-09T19:45:39.387Z,34.80
2023-04-09T19:49:08.233Z,36.20
2023-04-09T19:52:37.994Z,33.90
2023-04-09T19:56:06.069Z,34.50
2023-04-09T19:59:41.060Z,37.30
2023-04-09T20:03:10.561Z,36.20
2023-04-09T20:06:37.562Z,36.60
2023-04-09T20:10:05.076Z,35.50
2023-04-09T20:13:33.404Z,34.90
2023-04-09T20:17:00.433Z,35.00
2023-04-09T20:20:27.785Z,33.40
2023-04-09T20:23:54.704Z,33.40
2023-04-09T20:27:22.637Z,32.20
2023-04-09T20:30:49.437Z,32.10
2023-04-09T20:34:16.558Z,33.90
2023-04-09T20:37:43.516Z,35.40
2023-04-09T20:41:10.495Z,34.30
2023-04-09T20:44:38.185Z,34.10
2023-04-09T20:48:05.095Z,37.60
2023-04-09T20:51:32.265Z,38.80
2023-04-09T20:54:59.975Z,47.60
2023-04-09T20:58:27.707Z,45.30
2023-04-09T21:01:55.676Z,39.70
2023-04-09T21:05:24.184Z,46.40
2023-04-09T21:08:52.217Z,42.50
2023-04-09T21:12:19.340Z,45.70
2023-04-09T21:15:46.455Z,49.30
2023-04-09T21:19:13.643Z,42.80
2023-04-09T21:22:41.087Z,43.20
2023-04-09T21:26:08.998Z,41.50
2023-04-09T21:29:36.156Z,45.40
2023-04-09T21:33:05.675Z,45.10
2023-04-09T21:36:36.365Z,38.40
2023-04-09T21:40:03.706Z,37.40
2023-04-09T21:43:30.691Z,37.80
2023-04-09T21:46:57.838Z,37.30
2023-04-09T21:50:25.099Z,38.60
2023-04-09T21:53:54.185Z,38.40
2023-04-09T21:57:21.100Z,40.90
2023-04-09T22:00:48.169Z,42.20
2023-04-09T22:04:15.137Z,37.80
2023-04-09T22:07:42.672Z,33.30
2023-04-09T22:11:09.970Z,33.30
2023-04-09T22:14:36.942Z,36.00
2023-04-09T22:18:04.102Z,34.00
2023-04-09T22:21:31.707Z,34.80
2023-04-09T22:24:58.717Z,34.70
2023-04-09T22:28:25.775Z,34.00
2023-04-09T22:31:52.693Z,36.40
2023-04-09T22:35:20.043Z,38.80
2023-04-09T22:38:47.517Z,40.60
2023-04-09T22:42:14.775Z,40.90
2023-04-09T22:45:41.630Z,40.30
2023-04-09T22:49:09.133Z,38.20
2023-04-09T22:52:36.443Z,39.20
2023-04-09T22:56:03.712Z,39.50
2023-04-09T22:59:39.248Z,38.40
2023-04-09T23:03:07.726Z,37.20
2023-04-09T23:06:34.723Z,33.80
2023-04-09T23:10:02.090Z,32.00
2023-04-09T23:13:29.124Z,34.90
2023-04-09T23:16:56.419Z,36.40
2023-04-09T23:20:23.754Z,38.80
2023-04-09T23:23:50.622Z,39.80
2023-04-09T23:27:17.569Z,36.90
2023-04-09T23:30:45.063Z,38.70
2023-04-09T23:34:13.022Z,41.80
2023-04-09T23:37:39.892Z,41.20
2023-04-09T23:41:08.118Z,42.40
2023-04-09T23:44:35.506Z,41.70
2023-04-09T23:48:03.296Z,41.70
2023-04-09T23:51:30.172Z,41.30
2023-04-09T23:54:56.992Z,41.30
2023-04-09T23:58:24.057Z,42.70
